Time;durP1;ratioP1;P1;durP2;ratioP2;P2;SDS_P1;SDS_P2;PMS_P1;PMS_P2;Temp;Humidity;BMP_temperature;BMP_pressure;BME280_temperature;BME280_humidity;BME280_pressure;Samples;Min_cycle;Max_cycle;Signal;HPM_P1;HPM_P2
2024/01/18 00:01:49;;;;;;;3.65;0.93;;;;;;;-5.04;57.50;99187.09;4956746;28;20038;-66
2024/01/18 00:04:14;;;;;;;1.25;0.55;;;;;;;-5.04;57.29;99187.09;4960223;28;20042;-74
2024/01/18 00:06:40;;;;;;;1.20;0.47;;;;;;;-4.97;57.34;99187.09;4958632;28;20749;-74
2024/01/18 00:09:05;;;;;;;1.90;0.47;;;;;;;-4.93;57.42;99191.28;4961651;28;20034;-70
2024/01/18 00:11:30;;;;;;;8.05;0.73;;;;;;;-4.92;58.04;99198.09;4957204;28;20030;-69
2024/01/18 00:13:56;;;;;;;0.88;0.40;;;;;;;-4.90;58.56;99200.66;4950107;28;20105;-70
2024/01/18 00:16:21;;;;;;;4.35;0.63;;;;;;;-4.89;58.74;99207.44;4951016;28;20086;-67
2024/01/18 00:18:47;;;;;;;1.35;0.40;;;;;;;-4.73;58.28;99214.16;4966823;28;20078;-66
2024/01/18 00:21:12;;;;;;;1.42;0.20;;;;;;;-4.96;59.49;99211.69;4960907;28;20684;-68
2024/01/18 00:23:38;;;;;;;3.80;0.40;;;;;;;-4.78;59.22;99210.78;4956180;28;20389;-68
2024/01/18 00:26:05;;;;;;;0.73;0.20;;;;;;;-4.63;59.17;99216.69;4967928;28;20030;-69
2024/01/18 00:28:30;;;;;;;1.95;0.20;;;;;;;-4.43;58.60;99220.00;4955623;28;20046;-70
2024/01/18 00:30:56;;;;;;;1.42;0.43;;;;;;;-4.40;59.01;99219.13;4959049;28;20031;-70
2024/01/18 00:33:21;;;;;;;1.05;0.25;;;;;;;-4.23;58.83;99224.13;4954272;28;20541;-70
2024/01/18 00:35:48;;;;;;;3.70;0.60;;;;;;;-4.12;58.26;99227.44;4957965;28;20038;-69
2024/01/18 00:38:13;;;;;;;2.65;0.30;;;;;;;-4.16;57.65;99218.97;4960963;28;20046;-73
2024/01/18 00:40:39;;;;;;;1.73;0.30;;;;;;;-4.25;57.50;99225.84;4955948;28;20046;-68
2024/01/18 00:43:05;;;;;;;5.78;0.40;;;;;;;-4.26;57.64;99229.25;4962254;28;20118;-66
2024/01/18 00:45:31;;;;;;;2.05;0.20;;;;;;;-4.32;57.23;99236.09;4955192;28;20042;-67
2024/01/18 00:47:56;;;;;;;3.05;0.55;;;;;;;-4.34;56.51;99236.94;4959265;28;20635;-69
2024/01/18 00:50:22;;;;;;;5.28;0.30;;;;;;;-4.44;57.18;99248.88;4956960;28;20685;-69
2024/01/18 00:52:47;;;;;;;1.75;0.28;;;;;;;-4.47;57.30;99246.34;4958109;28;20046;-69
2024/01/18 00:55:13;;;;;;;4.30;0.35;;;;;;;-4.54;57.48;99242.97;4960091;28;20138;-67
2024/01/18 00:57:38;;;;;;;2.92;0.45;;;;;;;-4.52;57.39;99248.09;4957986;28;20041;-68
2024/01/18 01:00:05;;;;;;;1.08;0.30;;;;;;;-4.51;56.91;99257.41;4957024;28;20034;-69
2024/01/18 01:02:30;;;;;;;1.60;0.30;;;;;;;-4.60;56.91;99255.75;4930096;28;21604;-67
2024/01/18 01:04:56;;;;;;;3.45;1.67;;;;;;;-4.65;56.96;99261.75;4882455;28;20567;-68
2024/01/18 01:07:22;;;;;;;1.67;0.10;;;;;;;-4.73;57.08;99267.69;4888456;28;20270;-68
2024/01/18 01:09:48;;;;;;;1.23;0.30;;;;;;;-4.80;56.72;99270.28;4868208;28;20231;-67
2024/01/18 01:12:14;;;;;;;3.03;0.40;;;;;;;-4.84;56.53;99277.06;4879129;28;20144;-68
2024/01/18 01:14:39;;;;;;;0.90;0.30;;;;;;;-4.85;56.53;99280.47;4904654;28;20086;-70
2024/01/18 01:17:05;;;;;;;4.05;0.30;;;;;;;-4.87;56.70;99282.19;4960435;28;20172;-69
2024/01/18 01:19:30;;;;;;;3.50;0.90;;;;;;;-4.82;57.01;99290.66;4954128;28;20170;-70
2024/01/18 01:21:56;;;;;;;4.93;0.20;;;;;;;-4.82;59.38;99290.66;4974337;28;20033;-68
2024/01/18 01:24:22;;;;;;;3.55;0.45;;;;;;;-4.55;60.87;99291.44;4958712;28;20044;-70
2024/01/18 01:26:47;;;;;;;7.57;1.75;;;;;;;-4.12;60.38;99293.78;4954770;28;20026;-69
2024/01/18 01:29:13;;;;;;;1.08;0.08;;;;;;;-3.76;59.51;99302.13;4957540;28;20477;-68
2024/01/18 01:31:38;;;;;;;1.85;0.47;;;;;;;-3.90;60.09;99300.50;4955634;28;20141;-71
2024/01/18 01:34:04;;;;;;;0.80;0.00;;;;;;;-3.54;59.69;99297.69;4957250;28;21259;-71
2024/01/18 01:36:29;;;;;;;0.50;0.03;;;;;;;-3.70;60.33;99302.94;4987196;28;20419;-72
2024/01/18 01:38:55;;;;;;;4.38;0.85;;;;;;;-3.47;59.97;99307.88;4972414;28;20398;-74
2024/01/18 01:41:21;;;;;;;2.65;0.10;;;;;;;-3.45;59.66;99305.31;4958745;28;20026;-73
2024/01/18 01:44:00;;;;;;;0.57;0.00;;;;;;;-3.40;59.33;99310.38;4957342;28;20378;-74
2024/01/18 01:46:26;;;;;;;0.50;0.00;;;;;;;-3.29;58.79;99306.88;4956619;28;20051;-72
2024/01/18 01:48:57;;;;;;;5.90;0.65;;;;;;;-3.36;58.42;99312.91;4956369;28;20057;-68
2024/01/18 01:51:23;;;;;;;1.17;0.13;;;;;;;-3.42;57.94;99306.97;4954913;28;20187;-69
2024/01/18 01:53:49;;;;;;;2.47;0.03;;;;;;;-3.50;58.53;99320.63;4954947;28;20118;-71
2024/01/18 01:56:14;;;;;;;2.38;0.00;;;;;;;-3.48;57.81;99318.91;4973673;28;20122;-70
2024/01/18 01:58:40;;;;;;;0.75;0.10;;;;;;;-3.64;58.25;99322.44;4956073;28;20034;-70
2024/01/18 02:01:06;;;;;;;3.42;0.20;;;;;;;-3.67;58.86;99328.44;4958102;28;20038;-71
2024/01/18 02:03:32;;;;;;;2.53;0.10;;;;;;;-3.53;57.83;99320.66;4961988;28;20117;-71
2024/01/18 02:05:57;;;;;;;0.30;0.00;;;;;;;-3.57;57.58;99329.22;4958326;28;20034;-71
2024/01/18 02:08:23;;;;;;;0.57;0.00;;;;;;;-3.64;57.17;99324.16;4963014;28;20034;-71
2024/01/18 02:10:49;;;;;;;2.83;0.05;;;;;;;-3.73;57.33;99327.63;4957612;28;21464;-70
2024/01/18 02:13:15;;;;;;;1.08;0.20;;;;;;;-3.83;57.45;99336.19;4958933;28;20564;-71
2024/01/18 02:15:41;;;;;;;0.38;0.10;;;;;;;-3.93;57.34;99337.94;4954937;28;20638;-71
2024/01/18 02:18:07;;;;;;;0.47;0.13;;;;;;;-3.97;57.72;99343.91;4956380;28;20070;-71
2024/01/18 02:20:32;;;;;;;2.38;0.10;;;;;;;-4.05;56.86;99341.41;4954176;28;20046;-71
2024/01/18 02:22:59;;;;;;;1.73;0.85;;;;;;;-4.18;56.97;99339.78;4959257;28;20041;-71
2024/01/18 02:25:27;;;;;;;3.10;0.05;;;;;;;-4.22;56.94;99340.63;4956385;28;20215;-72
2024/01/18 02:27:56;;;;;;;0.30;0.00;;;;;;;-4.39;57.31;99345.78;4953005;28;20728;-70
2024/01/18 02:30:23;;;;;;;0.28;0.00;;;;;;;-4.42;57.64;99346.66;4954885;28;20358;-70
2024/01/18 02:32:48;;;;;;;0.28;0.00;;;;;;;-4.48;57.28;99351.75;4965318;28;20034;-71
2024/01/18 02:35:15;;;;;;;0.93;0.10;;;;;;;-4.50;57.10;99353.47;4980706;28;20076;-71
2024/01/18 02:37:42;;;;;;;2.08;0.03;;;;;;;-4.54;57.21;99346.69;4941023;28;20510;-69
2024/01/18 02:40:08;;;;;;;2.80;0.20;;;;;;;-4.64;57.83;99350.09;4944338;28;20053;-70
2024/01/18 02:42:33;;;;;;;2.85;0.65;;;;;;;-4.71;58.08;99350.09;4977202;28;20038;-70
2024/01/18 02:45:01;;;;;;;0.40;0.10;;;;;;;-4.69;58.17;99349.28;4959219;28;20660;-70
2024/01/18 02:47:28;;;;;;;1.20;0.00;;;;;;;-4.72;57.90;99343.31;4958855;28;20042;-70
2024/01/18 02:49:55;;;;;;;0.30;0.10;;;;;;;-5.22;60.14;99346.75;4964043;28;20132;-68
2024/01/18 02:52:21;;;;;;;1.98;0.20;;;;;;;-4.95;59.39;99345.03;4950488;28;20117;-68
2024/01/18 02:54:46;;;;;;;0.52;0.10;;;;;;;-4.80;59.05;99351.84;4952135;28;20634;-63
2024/01/18 02:57:12;;;;;;;1.98;0.20;;;;;;;-4.87;59.37;99348.44;4956680;28;20633;-64
2024/01/18 02:59:37;;;;;;;1.52;0.10;;;;;;;-4.74;58.66;99345.03;4944921;28;20070;-63
2024/01/18 03:02:02;;;;;;;1.33;0.20;;;;;;;-4.73;58.28;99356.06;4955641;28;20405;-63
2024/01/18 03:04:28;;;;;;;3.10;0.43;;;;;;;-4.79;58.57;99351.84;4960076;28;20504;-64
2024/01/18 03:06:53;;;;;;;1.02;0.20;;;;;;;-5.11;60.10;99358.66;4956546;28;20497;-66
2024/01/18 03:09:19;;;;;;;0.98;0.22;;;;;;;-4.95;59.47;99355.25;4953119;28;20686;-64
2024/01/18 03:11:44;;;;;;;3.22;0.20;;;;;;;-5.06;59.59;99356.94;4960570;28;20683;-70
2024/01/18 03:14:10;;;;;;;2.90;0.50;;;;;;;-4.88;59.31;99358.63;4946815;28;20051;-70
2024/01/18 03:16:37;;;;;;;2.05;0.38;;;;;;;-4.97;59.12;99352.72;4954251;28;20742;-68
2024/01/18 03:19:02;;;;;;;2.97;0.52;;;;;;;-5.14;58.94;99355.25;4956387;28;20027;-68
2024/01/18 03:21:28;;;;;;;3.50;0.38;;;;;;;-5.02;58.89;99354.41;4955863;28;20033;-66
2024/01/18 03:23:53;;;;;;;0.90;0.20;;;;;;;-5.14;59.04;99356.97;4955756;28;20574;-66
2024/01/18 03:26:19;;;;;;;1.50;0.35;;;;;;;-5.17;58.95;99362.03;4947319;28;20038;-67
2024/01/18 03:28:44;;;;;;;1.35;0.20;;;;;;;-5.07;59.21;99365.47;4923702;28;20054;-66
2024/01/18 03:31:13;;;;;;;4.05;0.30;;;;;;;-5.06;58.87;99365.44;4927246;28;20236;-65
2024/01/18 03:33:38;;;;;;;4.03;0.57;;;;;;;-5.21;59.66;99368.84;4930279;28;20069;-68
2024/01/18 03:36:05;;;;;;;1.00;0.30;;;;;;;-5.03;58.90;99372.25;4919793;28;20038;-69
2024/01/18 03:38:30;;;;;;;3.38;0.93;;;;;;;-5.20;59.72;99369.69;4917266;28;20041;-66
2024/01/18 03:40:56;;;;;;;0.80;0.28;;;;;;;-4.93;59.21;99369.69;4940675;28;20058;-68
2024/01/18 03:43:21;;;;;;;2.35;0.43;;;;;;;-4.78;59.14;99379.03;4934437;28;20049;-66
2024/01/18 03:45:47;;;;;;;3.25;0.68;;;;;;;-4.65;59.10;99390.06;4943695;28;20153;-66
2024/01/18 03:48:12;;;;;;;6.00;0.47;;;;;;;-4.60;58.69;99396.00;4951146;28;20073;-65
2024/01/18 03:50:38;;;;;;;1.73;0.60;;;;;;;-4.53;58.74;99396.81;4948896;28;20378;-66
2024/01/18 03:53:04;;;;;;;1.50;0.45;;;;;;;-4.61;58.72;99395.97;4953247;28;20046;-66
2024/01/18 03:55:29;;;;;;;1.30;0.40;;;;;;;-4.63;59.94;99397.72;4956479;28;20034;-68
2024/01/18 03:57:55;;;;;;;0.82;0.20;;;;;;;-4.52;59.77;99398.53;4943454;28;20031;-65
2024/01/18 04:00:20;;;;;;;1.70;0.30;;;;;;;-4.40;59.16;99395.94;4953211;28;20070;-66
2024/01/18 04:02:47;;;;;;;4.68;0.82;;;;;;;-4.27;58.82;99391.69;4957202;28;20130;-65
2024/01/18 04:05:12;;;;;;;1.52;0.68;;;;;;;-4.21;59.11;99389.13;4959752;28;20051;-69
2024/01/18 04:07:38;;;;;;;2.88;0.40;;;;;;;-4.13;58.73;99387.38;4944641;28;20569;-70
2024/01/18 04:10:04;;;;;;;6.18;0.40;;;;;;;-4.13;58.18;99387.38;4954762;28;21054;-70
2024/01/18 04:12:30;;;;;;;1.75;0.30;;;;;;;-4.10;58.08;99394.16;4962616;28;20034;-70
2024/01/18 04:14:56;;;;;;;1.95;0.65;;;;;;;-4.33;58.67;99389.13;4961990;28;20375;-67
2024/01/18 04:17:22;;;;;;;1.02;0.35;;;;;;;-4.31;58.37;99393.38;4949803;28;20035;-66
2024/01/18 04:19:51;;;;;;;1.00;0.30;;;;;;;-4.39;58.10;99402.78;4942652;28;20042;-70
2024/01/18 04:22:17;;;;;;;2.78;0.77;;;;;;;-4.45;58.15;99402.78;4935029;28;20034;-69
2024/01/18 04:24:45;;;;;;;1.52;0.45;;;;;;;-4.69;59.03;99403.66;4935673;28;20097;-66
2024/01/18 04:27:11;;;;;;;5.38;0.73;;;;;;;-4.48;58.76;99405.31;4938205;28;20045;-69
2024/01/18 04:29:36;;;;;;;2.47;0.80;;;;;;;-4.35;58.69;99413.78;4922333;28;20039;-68
2024/01/18 04:32:02;;;;;;;3.15;0.40;;;;;;;-4.24;58.94;99416.31;4933935;28;20082;-68
2024/01/18 04:34:27;;;;;;;1.55;0.52;;;;;;;-4.22;59.26;99417.16;4959204;28;20070;-70
2024/01/18 04:36:53;;;;;;;3.65;1.00;;;;;;;-4.23;59.90;99406.13;4956332;28;20089;-71
2024/01/18 04:39:18;;;;;;;7.63;0.50;;;;;;;-4.21;60.24;99404.41;4956805;28;20113;-71
2024/01/18 04:41:44;;;;;;;1.05;0.45;;;;;;;-3.85;59.61;99404.25;4949419;28;20130;-71
2024/01/18 04:44:09;;;;;;;2.10;0.50;;;;;;;-4.09;60.41;99391.59;4949009;28;20416;-71
2024/01/18 04:46:35;;;;;;;0.43;0.10;;;;;;;-4.15;60.95;99385.69;4947801;28;20042;-71
2024/01/18 04:49:00;;;;;;;1.08;0.15;;;;;;;-3.92;60.58;99394.09;4932557;28;20035;-72
2024/01/18 04:51:26;;;;;;;0.47;0.15;;;;;;;-3.70;59.60;99386.31;4932661;28;20549;-73
2024/01/18 04:53:51;;;;;;;1.63;0.20;;;;;;;-3.85;59.87;99396.59;4937867;28;20287;-71
2024/01/18 04:56:17;;;;;;;1.88;0.75;;;;;;;-3.81;59.87;99398.28;4887621;28;20062;-71
2024/01/18 04:58:43;;;;;;;1.13;0.20;;;;;;;-3.77;59.57;99393.16;4869058;28;20058;-71
2024/01/18 05:01:09;;;;;;;4.38;0.20;;;;;;;-3.81;59.76;99390.63;4885665;28;20161;-71
2024/01/18 05:03:34;;;;;;;0.82;0.10;;;;;;;-3.74;59.08;99393.16;4889890;28;20039;-71
2024/01/18 05:06:00;;;;;;;0.52;0.20;;;;;;;-3.77;58.70;99398.28;4896357;28;20038;-71
2024/01/18 05:08:25;;;;;;;1.15;0.20;;;;;;;-3.82;58.59;99405.13;4942989;28;20078;-71
2024/01/18 05:10:51;;;;;;;0.60;0.20;;;;;;;-3.88;58.92;99411.06;4957254;28;20073;-70
2024/01/18 05:13:17;;;;;;;1.65;0.10;;;;;;;-4.00;58.48;99410.31;4958868;28;20035;-71
2024/01/18 05:15:42;;;;;;;0.98;0.22;;;;;;;-4.07;58.62;99414.56;4958330;28;20035;-72
2024/01/18 05:18:08;;;;;;;1.00;0.20;;;;;;;-4.09;58.06;99406.06;4961125;28;20077;-71
2024/01/18 05:20:34;;;;;;;1.63;0.15;;;;;;;-4.22;57.96;99405.25;4957767;28;20051;-71
2024/01/18 05:22:59;;;;;;;0.43;0.10;;;;;;;-4.33;58.29;99407.84;4974408;28;20106;-71
2024/01/18 05:25:25;;;;;;;4.47;0.10;;;;;;;-4.36;58.42;99410.41;4960439;28;20038;-71
2024/01/18 05:27:51;;;;;;;1.98;0.30;;;;;;;-4.40;58.14;99408.72;4957538;28;20510;-71
2024/01/18 05:30:17;;;;;;;8.77;0.50;;;;;;;-4.47;58.14;99409.56;4956930;28;20046;-72
2024/01/18 05:32:42;;;;;;;0.95;0.20;;;;;;;-4.44;57.73;99413.81;4960001;28;20077;-72
2024/01/18 05:35:08;;;;;;;0.95;0.20;;;;;;;-4.48;57.76;99417.22;4950978;28;20038;-70
2024/01/18 05:37:34;;;;;;;3.38;0.38;;;;;;;-4.62;57.80;99425.72;4960429;28;20505;-71
2024/01/18 05:40:00;;;;;;;2.97;0.50;;;;;;;-4.82;57.70;99425.75;4955983;28;20061;-68
2024/01/18 05:42:27;;;;;;;1.42;0.30;;;;;;;-4.92;58.20;99427.47;4960348;28;20026;-68
2024/01/18 05:44:53;;;;;;;2.63;0.57;;;;;;;-4.96;58.33;99425.75;4956349;28;20035;-68
2024/01/18 05:47:18;;;;;;;2.05;0.20;;;;;;;-4.87;58.93;99439.34;4957287;28;20038;-67
2024/01/18 05:49:44;;;;;;;2.25;0.70;;;;;;;-4.82;59.18;99441.03;4959724;28;20065;-67
2024/01/18 05:52:09;;;;;;;0.77;0.52;;;;;;;-4.75;58.83;99455.47;4945319;28;20498;-67
2024/01/18 05:54:35;;;;;;;1.45;0.35;;;;;;;-4.66;59.31;99453.78;4959072;28;20619;-67
2024/01/18 05:57:01;;;;;;;5.97;1.58;;;;;;;-4.55;59.50;99459.72;4986523;28;20037;-66
2024/01/18 05:59:28;;;;;;;3.17;0.40;;;;;;;-4.58;59.42;99468.25;4958894;28;20123;-67
2024/01/18 06:01:54;;;;;;;2.95;0.75;;;;;;;-4.40;59.20;99469.91;4957234;28;20037;-72
2024/01/18 06:04:19;;;;;;;2.97;0.47;;;;;;;-4.37;59.20;99479.25;4956543;28;20035;-66
2024/01/18 06:06:45;;;;;;;4.35;0.63;;;;;;;-4.43;59.46;99472.50;4956809;28;20070;-67
2024/01/18 06:09:14;;;;;;;3.75;0.60;;;;;;;-4.50;59.67;99475.88;4965349;28;20054;-68
2024/01/18 06:11:40;;;;;;;3.40;0.80;;;;;;;-4.39;59.28;99479.28;4955433;28;20104;-67
2024/01/18 06:14:05;;;;;;;1.50;0.15;;;;;;;-4.35;58.89;99486.06;4957522;28;21108;-72
2024/01/18 06:16:31;;;;;;;2.05;0.57;;;;;;;-4.36;58.80;99484.38;4955336;28;20133;-73
2024/01/18 06:18:56;;;;;;;2.35;0.35;;;;;;;-4.41;58.32;99496.28;4950784;28;20101;-72
2024/01/18 06:21:22;;;;;;;1.42;0.20;;;;;;;-4.50;58.21;99493.72;4969729;28;20034;-71
2024/01/18 06:23:49;;;;;;;1.52;0.30;;;;;;;-4.61;58.06;99491.19;4939846;28;20093;-69
2024/01/18 06:26:14;;;;;;;6.43;0.35;;;;;;;-4.65;57.93;99501.41;4951214;28;20053;-69
2024/01/18 06:28:40;;;;;;;0.80;0.22;;;;;;;-4.73;58.08;99506.47;4956580;28;20026;-68
2024/01/18 06:31:06;;;;;;;4.22;0.65;;;;;;;-4.74;58.39;99503.09;4954739;28;20398;-67
2024/01/18 06:33:31;;;;;;;2.45;0.57;;;;;;;-4.76;58.38;99504.78;4953935;28;20027;-69
2024/01/18 06:35:57;;;;;;;7.70;3.85;;;;;;;-4.80;58.72;99509.88;4952560;28;20126;-69
2024/01/18 06:38:22;;;;;;;3.13;1.90;;;;;;;-4.76;58.59;99507.31;4951195;28;20030;-68
2024/01/18 06:40:48;;;;;;;4.97;2.50;;;;;;;-4.86;58.19;99507.31;4983392;28;20067;-70
2024/01/18 06:43:14;;;;;;;2.75;1.63;;;;;;;-4.93;58.17;99516.66;4956835;28;20038;-69
2024/01/18 06:45:40;;;;;;;4.68;1.48;;;;;;;-4.99;58.01;99514.06;4952679;28;20093;-69
2024/01/18 06:48:06;;;;;;;5.25;1.20;;;;;;;-5.06;58.31;99520.00;4952665;28;20030;-72
2024/01/18 06:50:35;;;;;;;6.07;1.00;;;;;;;-5.04;58.02;99520.88;4955316;28;20082;-74
2024/01/18 06:53:02;;;;;;;2.28;0.75;;;;;;;-5.12;58.01;99525.97;4955478;28;20065;-73
2024/01/18 06:55:28;;;;;;;0.77;0.30;;;;;;;-5.18;58.03;99521.69;4983717;28;20050;-73
2024/01/18 06:57:54;;;;;;;2.22;0.80;;;;;;;-5.16;58.39;99531.88;4957870;28;20039;-72
2024/01/18 07:00:23;;;;;;;1.02;0.22;;;;;;;-5.28;58.25;99526.75;4955058;28;20042;-67
2024/01/18 07:02:50;;;;;;;1.60;0.32;;;;;;;-5.27;57.97;99534.41;4954019;28;20049;-70
2024/01/18 07:05:17;;;;;;;1.58;0.65;;;;;;;-5.35;58.02;99536.06;4959305;28;20112;-73
2024/01/18 07:07:43;;;;;;;7.70;0.90;;;;;;;-5.35;57.95;99536.06;4938980;28;20486;-71
2024/01/18 07:10:12;;;;;;;2.30;0.75;;;;;;;-5.34;58.32;99540.31;4942235;28;20038;-72
2024/01/18 07:12:37;;;;;;;2.00;0.55;;;;;;;-5.36;57.83;99542.00;4910757;28;20212;-74
2024/01/18 07:15:12;;;;;;;4.13;1.20;;;;;;;-5.41;58.17;99549.63;4884399;28;20205;-72
2024/01/18 07:17:37;;;;;;;1.65;1.15;;;;;;;-5.38;58.05;99558.97;4888851;28;20411;-70
2024/01/18 07:20:04;;;;;;;5.47;2.33;;;;;;;-5.38;58.18;99558.97;4870332;28;20409;-68
2024/01/18 07:22:30;;;;;;;5.55;2.75;;;;;;;-5.42;58.03;99559.81;4888798;28;20201;-68
2024/01/18 07:24:55;;;;;;;3.42;1.92;;;;;;;-5.45;58.34;99559.81;4922614;28;20062;-72
2024/01/18 07:27:21;;;;;;;1.42;1.00;;;;;;;-5.51;58.88;99562.31;4958626;28;20077;-66
2024/01/18 07:29:50;;;;;;;2.97;0.88;;;;;;;-5.48;59.44;99568.28;4944655;28;20038;-70
2024/01/18 07:32:16;;;;;;;3.58;0.88;;;;;;;-5.40;59.03;99563.22;4953005;28;20026;-71
2024/01/18 07:34:42;;;;;;;5.75;1.33;;;;;;;-5.61;60.42;99572.47;4971094;28;20058;-72
2024/01/18 07:37:12;;;;;;;3.80;0.98;;;;;;;-5.55;60.19;99562.31;4957676;28;20052;-74
2024/01/18 07:39:37;;;;;;;4.53;0.52;;;;;;;-5.44;59.94;99569.13;4958997;28;20129;-74
2024/01/18 07:42:03;;;;;;;2.40;0.57;;;;;;;-5.37;59.81;99570.84;4967674;28;20039;-72
2024/01/18 07:44:29;;;;;;;1.23;0.50;;;;;;;-5.30;59.49;99580.25;4949514;28;20356;-73
2024/01/18 07:46:54;;;;;;;3.80;0.60;;;;;;;-5.43;60.46;99578.50;4956452;28;20045;-73
2024/01/18 07:49:23;;;;;;;7.78;0.85;;;;;;;-5.27;60.10;99577.69;4960377;28;20557;-72
2024/01/18 07:51:49;;;;;;;2.50;0.60;;;;;;;-5.14;59.78;99579.44;4954012;28;20031;-70
2024/01/18 07:54:15;;;;;;;2.97;0.98;;;;;;;-5.19;59.78;99578.59;4957264;28;20043;-71
2024/01/18 07:56:41;;;;;;;1.67;0.60;;;;;;;-5.04;59.75;99589.66;4986319;28;20509;-69
2024/01/18 07:59:07;;;;;;;4.63;1.65;;;;;;;-4.86;59.75;99601.63;4957131;28;20692;-67
2024/01/18 08:01:33;;;;;;;5.93;1.15;;;;;;;-4.72;59.85;99605.91;4957848;28;20493;-69
2024/01/18 08:03:59;;;;;;;1.65;0.73;;;;;;;-4.58;59.76;99617.84;4961628;28;20640;-69
2024/01/18 08:06:25;;;;;;;1.35;0.50;;;;;;;-4.30;60.26;99622.13;4962450;28;20035;-70
2024/01/18 08:08:51;;;;;;;4.03;0.30;;;;;;;-3.44;62.13;99617.81;4958614;28;20760;-68
2024/01/18 08:11:16;;;;;;;2.10;0.38;;;;;;;-2.85;60.75;99616.72;4957501;28;20035;-68
2024/01/18 08:13:42;;;;;;;2.88;0.50;;;;;;;-2.55;59.71;99631.06;4960159;28;20030;-70
2024/01/18 08:16:08;;;;;;;7.55;0.70;;;;;;;-2.40;58.88;99635.25;4957962;28;20545;-70
2024/01/18 08:18:35;;;;;;;7.35;0.82;;;;;;;-2.40;58.22;99627.56;4961039;28;20413;-69
2024/01/18 08:21:00;;;;;;;1.35;0.20;;;;;;;-2.35;58.45;99635.22;4956047;28;20054;-70
2024/01/18 08:23:26;;;;;;;2.00;0.25;;;;;;;-2.29;58.00;99627.47;4961457;28;20030;-71
2024/01/18 08:25:52;;;;;;;0.50;0.20;;;;;;;-2.13;57.29;99635.91;4956468;28;20042;-69
2024/01/18 08:28:18;;;;;;;0.88;0.55;;;;;;;-2.17;56.60;99641.91;4972906;28;20493;-67
2024/01/18 08:30:47;;;;;;;1.50;0.40;;;;;;;-1.97;56.98;99640.03;4958632;28;20101;-65
2024/01/18 08:33:12;;;;;;;2.33;0.30;;;;;;;-1.78;56.18;99639.88;4952990;28;20049;-66
2024/01/18 08:35:38;;;;;;;6.88;0.35;;;;;;;-1.22;55.75;99635.88;4942925;28;20066;-66
2024/01/18 08:38:04;;;;;;;1.30;0.20;;;;;;;-1.32;54.14;99635.16;4937380;28;20041;-66
2024/01/18 08:40:30;;;;;;;2.63;0.13;;;;;;;-1.20;54.30;99649.53;4942369;28;20037;-67
2024/01/18 08:42:56;;;;;;;2.17;0.30;;;;;;;-1.28;54.26;99651.34;4897878;28;20310;-66
2024/01/18 08:45:26;;;;;;;0.50;0.10;;;;;;;-1.62;53.28;99655.09;4886101;28;20045;-65
2024/01/18 08:47:52;;;;;;;1.17;0.40;;;;;;;-1.74;54.18;99647.50;4909531;28;20076;-64
2024/01/18 08:50:19;;;;;;;3.30;0.55;;;;;;;-2.12;53.82;99656.34;4885881;28;21024;-65
2024/01/18 08:52:45;;;;;;;2.40;0.20;;;;;;;-2.56;54.54;99667.72;4877250;28;20060;-65
2024/01/18 08:55:10;;;;;;;6.80;0.93;;;;;;;-2.68;55.08;99660.97;4914897;28;20575;-65
2024/01/18 08:57:36;;;;;;;3.10;0.75;;;;;;;-2.67;55.44;99672.03;4914859;28;20057;-65
2024/01/18 09:00:02;;;;;;;2.97;0.70;;;;;;;-2.59;55.53;99665.19;4924401;28;20154;-65
2024/01/18 09:02:28;;;;;;;2.13;0.47;;;;;;;-2.19;55.42;99662.38;4917217;28;20038;-66
2024/01/18 09:04:53;;;;;;;2.30;0.70;;;;;;;-1.78;54.97;99673.19;4949246;28;20049;-65
2024/01/18 09:07:19;;;;;;;2.95;1.58;;;;;;;-1.03;52.86;99673.31;4959533;28;20034;-66
2024/01/18 09:09:45;;;;;;;2.63;1.00;;;;;;;-0.68;50.64;99679.75;4957052;28;20050;-66
2024/01/18 09:12:13;;;;;;;4.10;0.55;;;;;;;0.31;49.88;99673.16;4953833;28;20061;-68
2024/01/18 09:14:39;;;;;;;5.05;1.17;;;;;;;0.52;47.46;99677.91;4957230;28;20060;-66
2024/01/18 09:17:04;;;;;;;2.90;1.10;;;;;;;0.72;47.67;99687.84;4959904;28;20146;-65
2024/01/18 09:19:32;;;;;;;1.23;0.43;;;;;;;0.60;47.21;99691.50;4957651;28;20038;-67
2024/01/18 09:21:58;;;;;;;0.73;0.30;;;;;;;0.76;46.40;99692.06;4953744;28;21314;-66
2024/01/18 09:24:24;;;;;;;1.42;0.40;;;;;;;1.72;48.64;99697.00;4958180;28;20543;-66
2024/01/18 09:26:49;;;;;;;1.30;0.50;;;;;;;2.10;45.74;99695.28;4954888;28;20042;-64
2024/01/18 09:29:15;;;;;;;2.45;0.63;;;;;;;2.68;43.59;99713.63;4959009;28;20069;-64
2024/01/18 09:31:40;;;;;;;1.05;0.60;;;;;;;2.35;44.21;99718.78;4956165;28;20066;-65
2024/01/18 09:34:06;;;;;;;2.30;0.50;;;;;;;3.13;43.09;99733.09;4955272;28;20066;-64
2024/01/18 09:36:32;;;;;;;3.60;0.52;;;;;;;2.90;41.54;99741.47;4958897;28;20048;-66
2024/01/18 09:38:57;;;;;;;2.42;0.52;;;;;;;2.49;43.71;99751.13;4957885;28;20026;-65
2024/01/18 09:41:26;;;;;;;2.25;0.45;;;;;;;0.87;46.95;99767.31;4959240;28;20131;-67
2024/01/18 09:43:58;;;;;;;2.03;0.28;;;;;;;-0.51;50.66;99774.50;4953551;28;20041;-67
2024/01/18 09:46:25;;;;;;;3.88;0.38;;;;;;;-0.59;51.27;99784.84;4956588;28;20061;-68
2024/01/18 09:48:51;;;;;;;1.80;0.20;;;;;;;-0.98;53.27;99786.97;4942453;28;20717;-65
2024/01/18 09:51:21;;;;;;;2.10;0.20;;;;;;;-0.78;52.75;99791.06;4927210;28;20038;-65
2024/01/18 09:53:49;;;;;;;1.02;0.30;;;;;;;-0.65;52.66;99802.88;4916293;28;20070;-68
2024/01/18 09:56:22;;;;;;;3.90;0.20;;;;;;;-0.82;53.70;99804.78;4905435;28;20034;-69
2024/01/18 09:58:49;;;;;;;0.60;0.30;;;;;;;-0.70;53.46;99808.94;4913429;28;20308;-68
2024/01/18 10:01:20;;;;;;;3.30;0.20;;;;;;;-0.80;53.43;99823.56;4954732;28;20493;-68
2024/01/18 10:03:47;;;;;;;3.27;0.30;;;;;;;-0.92;54.37;99833.97;4955026;28;20039;-68
2024/01/18 10:06:13;;;;;;;3.22;0.45;;;;;;;-0.67;53.81;99835.41;4965973;28;20387;-67
2024/01/18 10:08:39;;;;;;;2.25;0.40;;;;;;;-0.93;53.67;99842.50;4940889;28;20177;-67
2024/01/18 10:11:05;;;;;;;0.60;0.28;;;;;;;-0.94;53.83;99851.94;4950286;28;20073;-66
2024/01/18 10:13:49;;;;;;;2.00;0.10;;;;;;;-1.04;54.42;99851.16;4955268;28;20183;-68
2024/01/18 10:16:34;;;;;;;0.47;0.10;;;;;;;-1.03;54.92;99847.72;4965220;28;20517;-67
2024/01/18 10:19:06;;;;;;;3.05;0.45;;;;;;;-1.04;55.42;99848.59;4950360;28;20037;-67
2024/01/18 10:21:36;;;;;;;8.13;0.43;;;;;;;-0.92;56.21;99849.34;4971609;28;20633;-67
2024/01/18 10:24:06;;;;;;;1.27;0.45;;;;;;;-0.71;55.98;99851.69;4945223;28;20034;-67
2024/01/18 10:26:32;;;;;;;0.80;0.20;;;;;;;-0.49;56.04;99854.91;4968887;28;20035;-67
2024/01/18 10:28:58;;;;;;;2.50;0.45;;;;;;;-0.31;55.58;99858.97;4949173;28;20175;-66
2024/01/18 10:31:24;;;;;;;0.60;0.10;;;;;;;-0.21;54.14;99859.75;4950547;28;20069;-67
2024/01/18 10:33:50;;;;;;;0.45;0.15;;;;;;;-0.20;54.19;99862.28;4953844;28;20061;-67
2024/01/18 10:36:16;;;;;;;2.13;0.60;;;;;;;-0.38;54.01;99863.34;4967055;28;20031;-67
2024/01/18 10:38:42;;;;;;;1.70;0.40;;;;;;;-0.54;54.43;99855.84;4956575;28;20042;-67
2024/01/18 10:41:11;;;;;;;3.35;0.40;;;;;;;-0.46;55.13;99862.59;4950209;28;20627;-68
2024/01/18 10:43:37;;;;;;;0.90;0.38;;;;;;;-0.54;54.91;99872.06;4956517;28;20026;-67
2024/01/18 10:46:04;;;;;;;1.83;0.40;;;;;;;-0.56;54.81;99869.50;4951039;28;20042;-67
2024/01/18 10:48:33;;;;;;;0.98;0.30;;;;;;;-0.57;55.00;99877.25;4961524;28;20044;-67
2024/01/18 10:51:01;;;;;;;2.50;0.40;;;;;;;-0.61;54.84;99889.25;4945899;28;21106;-68
2024/01/18 10:53:33;;;;;;;2.55;0.45;;;;;;;-0.66;54.92;99892.72;4952457;28;20133;-67
2024/01/18 10:55:59;;;;;;;2.70;1.05;;;;;;;-0.65;54.94;99890.13;4950831;28;20046;-67
2024/01/18 10:58:25;;;;;;;2.50;0.85;;;;;;;-0.83;54.83;99891.16;4948937;28;22783;-68
2024/01/18 11:00:52;;;;;;;16.00;2.42;;;;;;;-0.92;55.52;99890.41;4950847;28;20181;-67
2024/01/18 11:03:18;;;;;;;4.05;2.35;;;;;;;-0.81;55.64;99891.16;4984311;28;20551;-67
2024/01/18 11:05:46;;;;;;;2.00;0.70;;;;;;;-1.07;56.03;99894.75;4961094;28;20034;-67
2024/01/18 11:08:15;;;;;;;3.85;1.35;;;;;;;-0.92;56.45;99900.66;4950311;28;20049;-68
2024/01/18 11:10:42;;;;;;;17.63;8.20;;;;;;;-0.67;56.58;99898.72;4953777;28;21036;-69
2024/01/18 11:13:09;;;;;;;3.72;1.40;;;;;;;-0.47;55.47;99894.25;4950992;28;20065;-68
2024/01/18 11:15:41;;;;;;;4.82;1.00;;;;;;;-0.13;55.40;99905.00;4952172;28;20073;-67
2024/01/18 11:18:11;;;;;;;1.48;0.95;;;;;;;0.12;55.17;99907.28;4949579;28;20133;-68
2024/01/18 11:21:06;;;;;;;2.47;0.82;;;;;;;0.28;54.59;99911.38;4949688;28;20042;-68
2024/01/18 11:23:37;;;;;;;2.03;0.43;;;;;;;0.90;53.83;99913.06;4954575;28;20030;-67
2024/01/18 11:26:08;;;;;;;5.93;1.30;;;;;;;1.18;51.24;99917.78;4959341;28;20112;-69
2024/01/18 11:28:34;;;;;;;7.15;1.60;;;;;;;1.59;51.04;99911.09;4956712;28;20084;-68
2024/01/18 11:31:00;;;;;;;10.18;1.38;;;;;;;2.31;50.63;99907.97;4969373;28;20802;-71